Time;durP1;ratioP1;P1;durP2;ratioP2;P2;SDS_P1;SDS_P2;PMS_P1;PMS_P2;Temp;Humidity;BMP_temperature;BMP_pressure;BME280_temperature;BME280_humidity;BME280_pressure;Samples;Min_cycle;Max_cycle;Signal;HPM_P1;HPM_P2
2022/05/17 00:00:53;;;;;;;6.70;4.58;;;;;;;12.97;65.55;97839.66;1701659;84;21016;-75
2022/05/17 00:03:20;;;;;;;12.55;4.58;;;;;;;13.01;65.54;97841.72;1701824;84;21072;-75
2022/05/17 00:05:47;;;;;;;7.83;4.92;;;;;;;13.01;65.44;97840.39;1701766;84;21663;-75
2022/05/17 00:08:14;;;;;;;6.83;4.47;;;;;;;12.95;65.50;97834.85;1701538;84;21110;-75
2022/05/17 00:10:42;;;;;;;6.15;4.70;;;;;;;12.87;65.81;97833.00;1701735;84;21052;-75
2022/05/17 00:13:09;;;;;;;7.20;4.58;;;;;;;12.87;66.01;97833.00;1701548;84;21044;-76
2022/05/17 00:15:39;;;;;;;6.50;4.50;;;;;;;12.86;65.80;97826.80;1701680;84;21079;-75
2022/05/17 00:18:06;;;;;;;9.80;5.20;;;;;;;12.82;66.30;97831.00;1701243;84;21540;-75
2022/05/17 00:20:33;;;;;;;11.78;5.20;;;;;;;12.78;65.88;97824.91;1701496;84;21080;-76
2022/05/17 00:23:00;;;;;;;9.48;4.95;;;;;;;12.75;66.02;97825.91;1671709;84;21080;-75
2022/05/17 00:25:26;;;;;;;6.05;4.42;;;;;;;12.72;67.15;97825.17;1701859;84;21060;-75
2022/05/17 00:27:52;;;;;;;6.67;4.33;;;;;;;12.73;66.29;97820.25;1701586;84;21488;-75
2022/05/17 00:30:19;;;;;;;6.70;4.47;;;;;;;12.71;67.29;97816.32;1701667;84;21028;-75
2022/05/17 00:32:45;;;;;;;8.00;4.28;;;;;;;12.74;66.47;97814.03;1701845;84;21024;-75
2022/05/17 00:35:12;;;;;;;6.58;4.28;;;;;;;12.71;66.36;97814.99;1701437;84;21122;-76
2022/05/17 00:37:38;;;;;;;5.90;4.90;;;;;;;12.69;66.28;97810.22;1701365;84;21020;-76
2022/05/17 00:40:07;;;;;;;6.17;4.65;;;;;;;12.70;66.47;97810.61;1701875;84;21043;-75
2022/05/17 00:42:34;;;;;;;7.72;4.28;;;;;;;12.70;66.23;97807.95;1701653;84;21037;-76
2022/05/17 00:45:02;;;;;;;6.90;4.53;;;;;;;12.69;66.62;97803.57;1701870;84;21059;-75
2022/05/17 00:47:35;;;;;;;9.70;4.40;;;;;;;12.68;65.96;97802.69;1701818;84;21028;-75
2022/05/17 00:50:28;;;;;;;8.58;4.67;;;;;;;12.70;65.84;97800.45;1701922;84;21477;-75
2022/05/17 00:52:58;;;;;;;6.10;4.33;;;;;;;12.70;65.84;97805.30;1701806;84;21032;-75
2022/05/17 00:55:40;;;;;;;5.30;4.05;;;;;;;12.65;66.44;97796.64;1701885;83;21505;-75
2022/05/17 00:58:25;;;;;;;6.22;4.55;;;;;;;12.63;65.79;97799.84;1707557;83;21044;-76
2022/05/17 01:01:03;;;;;;;6.33;4.33;;;;;;;12.58;65.92;97793.37;1664348;86;21087;-75
2022/05/17 01:03:39;;;;;;;7.58;4.70;;;;;;;12.58;65.77;97797.35;1692009;85;21608;-75
2022/05/17 01:06:07;;;;;;;5.87;4.67;;;;;;;12.57;66.40;97792.97;1663580;85;21039;-75
2022/05/17 01:08:33;;;;;;;5.37;4.40;;;;;;;12.52;66.77;97797.16;1692152;85;21032;-75
2022/05/17 01:10:59;;;;;;;6.60;4.30;;;;;;;12.47;66.21;97798.27;1669795;84;21424;-75
2022/05/17 01:16:11;;;;;;;5.95;4.08;;;;;;;12.42;66.13;97793.16;1699848;84;21046;-75
2022/05/17 01:18:41;;;;;;;5.58;4.47;;;;;;;12.38;66.63;97794.20;1691958;85;21418;-76
2022/05/17 01:21:09;;;;;;;7.50;4.37;;;;;;;12.35;66.40;97797.84;1699761;83;21006;-76
2022/05/17 01:23:35;;;;;;;5.75;4.37;;;;;;;12.29;66.54;97791.42;1691920;85;21528;-76
2022/05/17 01:26:03;;;;;;;5.35;4.50;;;;;;;12.22;67.08;97791.28;1662865;86;20973;-75
2022/05/17 01:28:32;;;;;;;6.78;4.25;;;;;;;12.21;66.34;97789.07;1692048;85;21032;-76
2022/05/17 01:31:04;;;;;;;8.00;4.20;;;;;;;12.21;66.24;97791.73;1662946;86;20980;-75
2022/05/17 01:33:26;;;;;;;7.12;4.30;;;;;;;12.18;66.18;97778.59;1691617;85;21013;-75
2022/05/17 01:35:52;;;;;;;6.55;4.33;;;;;;;12.18;66.44;97785.67;1700027;84;21464;-75
2022/05/17 01:38:19;;;;;;;5.30;4.22;;;;;;;12.19;66.41;97786.08;1692148;85;21044;-75
2022/05/17 01:40:45;;;;;;;8.03;4.47;;;;;;;12.18;66.35;97788.34;1663069;86;21461;-75
2022/05/17 01:43:11;;;;;;;7.87;4.33;;;;;;;12.07;66.75;97788.30;1692319;85;21097;-76
2022/05/17 01:45:38;;;;;;;6.35;4.00;;;;;;;11.98;66.93;97784.63;1699902;83;21432;-75
2022/05/17 01:48:05;;;;;;;7.87;4.10;;;;;;;11.95;66.64;97782.09;1692127;85;21044;-75
2022/05/17 01:50:32;;;;;;;8.13;4.00;;;;;;;11.91;66.83;97781.83;1663039;86;21452;-75
2022/05/17 01:52:58;;;;;;;5.95;4.03;;;;;;;11.86;67.34;97784.64;1691846;85;21432;-76
2022/05/17 01:55:24;;;;;;;7.35;4.60;;;;;;;11.84;66.63;97778.54;1692106;85;21052;-75
2022/05/17 01:57:50;;;;;;;6.85;4.50;;;;;;;11.81;66.76;97774.66;1692205;85;21525;-76
2022/05/17 02:00:18;;;;;;;7.65;3.87;;;;;;;11.79;66.86;97774.72;1691843;85;21072;-75
2022/05/17 02:02:44;;;;;;;8.95;4.45;;;;;;;11.77;66.93;97771.27;1692091;85;21059;-75
2022/05/17 02:05:11;;;;;;;8.80;4.20;;;;;;;11.74;67.19;97764.28;1692102;85;21083;-76
2022/05/17 02:07:38;;;;;;;7.28;4.37;;;;;;;11.68;67.50;97762.31;1692103;83;21441;-75
2022/05/17 02:10:07;;;;;;;9.33;4.22;;;;;;;11.65;67.55;97769.94;1692129;85;21052;-75
2022/05/17 02:12:34;;;;;;;7.78;4.33;;;;;;;11.60;68.18;97754.65;1692101;85;21075;-76
2022/05/17 02:15:01;;;;;;;9.00;4.35;;;;;;;11.58;67.42;97755.15;1692139;85;21108;-75
2022/05/17 02:17:27;;;;;;;9.20;5.03;;;;;;;11.61;67.12;97738.67;1692273;85;21072;-75
2022/05/17 02:19:53;;;;;;;6.78;4.10;;;;;;;11.62;67.12;97741.72;1692142;85;21060;-75
2022/05/17 02:22:19;;;;;;;5.45;4.00;;;;;;;11.60;67.58;97744.03;1692188;85;21466;-75
2022/05/17 02:24:47;;;;;;;13.72;5.75;;;;;;;11.53;67.43;97742.52;1692152;85;21029;-76
2022/05/17 02:27:13;;;;;;;5.97;4.00;;;;;;;11.51;67.23;97743.05;1692194;85;21128;-75
2022/05/17 02:29:39;;;;;;;6.33;3.98;;;;;;;11.47;67.70;97743.63;1692137;85;21037;-75
2022/05/17 02:32:06;;;;;;;4.90;4.17;;;;;;;11.45;67.67;97750.31;1692029;85;21465;-75
2022/05/17 02:34:36;;;;;;;5.65;3.67;;;;;;;11.44;67.46;97749.92;1692229;85;21027;-76
2022/05/17 02:37:04;;;;;;;5.92;3.87;;;;;;;11.44;67.26;97755.67;1692221;85;20981;-75
2022/05/17 02:39:31;;;;;;;6.72;4.08;;;;;;;11.47;67.23;97755.58;1691830;85;21059;-75
2022/05/17 02:41:57;;;;;;;7.30;3.90;;;;;;;11.48;67.08;97756.84;1692166;85;21077;-75
2022/05/17 02:44:24;;;;;;;6.45;4.40;;;;;;;11.45;66.96;97756.95;1692186;85;21079;-75
2022/05/17 02:46:51;;;;;;;6.30;4.08;;;;;;;11.43;66.91;97760.14;1692160;83;21099;-75
2022/05/17 02:49:17;;;;;;;7.15;4.03;;;;;;;11.43;67.40;97761.91;1692117;85;21397;-75
2022/05/17 02:51:44;;;;;;;8.45;4.15;;;;;;;11.40;67.10;97759.36;1692228;85;21029;-75
2022/05/17 02:54:11;;;;;;;7.00;4.33;;;;;;;11.35;67.98;97751.58;1692235;85;21095;-75
2022/05/17 02:56:38;;;;;;;7.28;4.60;;;;;;;11.35;67.55;97756.89;1692110;85;21032;-75
2022/05/17 02:59:05;;;;;;;7.90;4.25;;;;;;;11.33;67.72;97755.61;1692025;85;21072;-76
2022/05/17 03:01:32;;;;;;;5.87;3.92;;;;;;;11.28;68.49;97760.67;1692074;85;21079;-76
2022/05/17 03:03:59;;;;;;;9.30;4.22;;;;;;;11.20;68.70;97762.27;1692150;85;21404;-75
2022/05/17 03:06:25;;;;;;;10.15;5.05;;;;;;;11.17;68.02;97759.27;1692133;85;21599;-75
2022/05/17 03:08:51;;;;;;;7.92;4.20;;;;;;;11.13;68.39;97763.43;1691908;83;21151;-75
2022/05/17 03:11:18;;;;;;;7.42;4.03;;;;;;;11.09;68.47;97762.68;1692123;85;21013;-76
2022/05/17 03:13:44;;;;;;;7.00;4.15;;;;;;;11.06;68.81;97770.28;1692100;85;21449;-75
2022/05/17 03:16:11;;;;;;;12.65;4.42;;;;;;;11.04;68.58;97763.30;1692117;85;21099;-75
2022/05/17 03:18:39;;;;;;;9.08;5.03;;;;;;;11.05;67.95;97759.25;1692174;85;21458;-75
2022/05/17 03:21:05;;;;;;;6.37;4.15;;;;;;;11.04;68.20;97763.30;1692107;85;21052;-75
2022/05/17 03:23:33;;;;;;;9.00;4.08;;;;;;;11.01;68.94;97760.75;1692143;85;21056;-75
2022/05/17 03:25:59;;;;;;;3.95;3.55;;;;;;;11.01;68.70;97762.92;1692159;85;21092;-75
2022/05/17 03:28:25;;;;;;;5.85;4.15;;;;;;;10.99;68.85;97764.77;1692089;85;21481;-75
2022/05/17 03:30:52;;;;;;;9.78;3.75;;;;;;;11.03;68.26;97761.10;1692184;85;21068;-75
2022/05/17 03:33:18;;;;;;;5.45;3.70;;;;;;;11.07;67.84;97758.75;1692089;85;21140;-75
2022/05/17 03:35:44;;;;;;;5.83;4.20;;;;;;;11.09;67.83;97764.01;1692189;85;21024;-75
2022/05/17 03:38:11;;;;;;;5.42;3.90;;;;;;;11.09;67.65;97758.70;1691949;85;21059;-75
2022/05/17 03:40:37;;;;;;;7.35;4.28;;;;;;;11.11;68.05;97766.13;1692099;85;21028;-75
2022/05/17 03:43:04;;;;;;;8.85;4.87;;;;;;;11.14;67.62;97762.50;1692107;83;21048;-75
2022/05/17 03:45:30;;;;;;;8.90;3.92;;;;;;;11.18;67.92;97762.80;1692065;85;21048;-75
2022/05/17 03:47:57;;;;;;;5.72;3.95;;;;;;;11.21;68.05;97760.90;1692108;85;21116;-75
2022/05/17 03:50:23;;;;;;;6.25;4.00;;;;;;;11.27;67.52;97765.13;1692032;85;21001;-75
2022/05/17 03:52:50;;;;;;;7.12;4.72;;;;;;;11.32;67.46;97768.92;1692081;85;21509;-75
2022/05/17 03:55:16;;;;;;;8.80;4.28;;;;;;;11.37;67.42;97767.45;1692186;85;21072;-75
2022/05/17 03:57:43;;;;;;;9.03;4.33;;;;;;;11.41;67.56;97767.75;1691963;85;21044;-76
2022/05/17 04:00:11;;;;;;;8.63;3.90;;;;;;;11.50;67.13;97776.67;1688076;84;21540;-76
2022/05/17 04:02:41;;;;;;;7.17;3.75;;;;;;;11.55;66.93;97776.52;1721576;83;21564;-76
2022/05/17 04:05:09;;;;;;;6.67;4.08;;;;;;;11.58;67.55;97778.59;1721443;83;21059;-75
2022/05/17 04:07:35;;;;;;;7.97;4.60;;;;;;;11.60;67.12;97777.21;1721722;83;21049;-75
2022/05/17 04:10:03;;;;;;;6.30;4.40;;;;;;;11.59;67.08;97781.64;1721500;83;21040;-76
2022/05/17 04:12:30;;;;;;;8.63;4.22;;;;;;;11.63;66.94;97777.11;1721440;83;21048;-76
2022/05/17 04:14:56;;;;;;;7.33;4.37;;;;;;;11.66;67.38;97780.11;1721610;83;21068;-76
2022/05/17 04:17:24;;;;;;;7.50;4.70;;;;;;;11.67;67.29;97777.84;1686933;85;21004;-75
2022/05/17 04:19:50;;;;;;;8.48;4.30;;;;;;;11.69;67.01;97779.52;1721653;83;21048;-75
2022/05/17 04:22:17;;;;;;;6.90;4.30;;;;;;;11.74;66.90;97774.91;1686848;85;20981;-75
2022/05/17 04:24:43;;;;;;;8.93;4.90;;;;;;;11.79;66.82;97767.23;1721681;83;21018;-75
2022/05/17 04:27:09;;;;;;;7.85;4.92;;;;;;;11.84;66.68;97769.25;1721601;82;20976;-75
2022/05/17 04:29:37;;;;;;;10.55;4.33;;;;;;;11.87;66.92;97771.31;1686802;85;21527;-76
2022/05/17 04:32:06;;;;;;;13.53;5.00;;;;;;;11.95;66.61;97772.34;1721611;83;21079;-76
2022/05/17 04:34:32;;;;;;;8.18;4.67;;;;;;;12.02;66.43;97772.97;1721194;83;21135;-76
2022/05/17 04:36:58;;;;;;;9.88;4.92;;;;;;;12.08;66.13;97764.78;1721515;83;21015;-75
2022/05/17 04:39:24;;;;;;;5.90;4.37;;;;;;;12.15;66.09;97765.41;1721457;83;20976;-75
2022/05/17 04:41:51;;;;;;;6.28;4.33;;;;;;;12.20;66.05;97762.11;1721561;83;21079;-75
2022/05/17 04:44:17;;;;;;;7.15;4.28;;;;;;;12.26;65.75;97762.34;1721498;83;21441;-75
2022/05/17 04:46:44;;;;;;;8.55;4.50;;;;;;;12.33;65.70;97750.52;1721442;83;20980;-76
2022/05/17 04:49:10;;;;;;;7.40;4.15;;;;;;;12.43;65.54;97751.02;1721592;83;21012;-76
2022/05/17 04:51:41;;;;;;;8.23;4.50;;;;;;;12.52;65.39;97751.09;1721303;83;30956;-76
2022/05/17 04:54:08;;;;;;;9.75;4.50;;;;;;;12.63;65.30;97746.19;1721476;83;21004;-76
2022/05/17 04:56:34;;;;;;;8.75;4.40;;;;;;;12.71;65.08;97746.34;1721514;83;21030;-75
2022/05/17 04:59:01;;;;;;;7.72;4.33;;;;;;;12.79;65.13;97742.42;1721891;82;21106;-76
2022/05/17 05:01:28;;;;;;;8.40;4.62;;;;;;;12.89;64.98;97743.36;1724245;83;21047;-76
2022/05/17 05:03:54;;;;;;;9.68;5.85;;;;;;;12.97;64.89;97739.91;1724406;83;21012;-76
2022/05/17 05:06:21;;;;;;;13.55;4.90;;;;;;;13.05;64.71;97739.57;1724372;83;21074;-76
2022/05/17 05:08:47;;;;;;;5.35;4.10;;;;;;;13.15;64.62;97734.24;1724318;83;21000;-76
2022/05/17 05:11:13;;;;;;;7.87;4.33;;;;;;;13.26;64.60;97734.23;1724507;83;21031;-76
2022/05/17 05:13:40;;;;;;;7.22;4.80;;;;;;;13.37;64.53;97737.26;1724524;83;21473;-76
2022/05/17 05:16:11;;;;;;;13.65;5.92;;;;;;;13.47;64.22;97727.11;1724203;83;21070;-76
2022/05/17 05:18:40;;;;;;;7.55;4.92;;;;;;;13.59;64.13;97735.00;1692144;85;21509;-76
2022/05/17 05:21:10;;;;;;;8.95;4.40;;;;;;;13.68;64.00;97727.92;1699776;84;21542;-76
2022/05/17 05:23:37;;;;;;;11.97;4.62;;;;;;;13.82;63.90;97734.38;1663844;86;21035;-76
2022/05/17 05:26:04;;;;;;;10.38;5.20;;;;;;;13.94;63.66;97728.48;1691973;85;21045;-76
2022/05/17 05:28:33;;;;;;;7.47;4.47;;;;;;;14.05;63.31;97733.30;1699641;84;21067;-76
2022/05/17 05:31:00;;;;;;;8.58;4.75;;;;;;;14.18;63.16;97731.36;1724301;83;21127;-75
2022/05/17 05:33:29;;;;;;;7.60;4.58;;;;;;;14.33;63.13;97720.44;1691934;85;21044;-75
2022/05/17 05:35:57;;;;;;;8.53;4.35;;;;;;;14.53;63.08;97730.09;1662609;86;20981;-76
2022/05/17 05:38:25;;;;;;;7.37;3.95;;;;;;;14.74;63.00;97724.63;1692092;85;21032;-76
2022/05/17 05:40:51;;;;;;;9.75;4.90;;;;;;;14.98;62.63;97712.31;1699772;84;21134;-75
2022/05/17 05:43:18;;;;;;;10.68;4.78;;;;;;;15.18;62.11;97713.48;1691867;85;20989;-75
2022/05/17 05:45:44;;;;;;;8.13;4.50;;;;;;;15.39;62.01;97709.73;1699770;83;21018;-76
2022/05/17 05:48:12;;;;;;;8.53;4.25;;;;;;;15.53;61.44;97703.66;1723694;83;21028;-75
2022/05/17 05:50:39;;;;;;;11.20;4.47;;;;;;;15.64;61.27;97710.59;1691901;84;21473;-75
2022/05/17 05:53:09;;;;;;;9.35;4.22;;;;;;;15.75;60.83;97700.66;1699624;83;21006;-75
2022/05/17 05:55:36;;;;;;;6.97;4.00;;;;;;;15.84;60.17;97704.16;1691890;85;21004;-75
2022/05/17 05:58:04;;;;;;;8.15;4.00;;;;;;;15.97;59.67;97704.83;1662520;86;21000;-76
2022/05/17 06:00:31;;;;;;;13.50;4.97;;;;;;;16.08;60.19;97700.22;1688393;85;21064;-75
2022/05/17 06:02:58;;;;;;;11.57;4.22;;;;;;;16.20;59.87;97701.33;1721330;83;21413;-75
2022/05/17 06:05:25;;;;;;;8.30;4.17;;;;;;;16.29;59.97;97701.27;1721347;83;20996;-76
2022/05/17 06:07:52;;;;;;;7.22;4.15;;;;;;;16.38;59.97;97694.52;1721443;83;21011;-76
2022/05/17 06:10:21;;;;;;;9.75;4.37;;;;;;;16.42;59.81;97696.06;1721493;83;20996;-76
2022/05/17 06:12:47;;;;;;;7.37;4.37;;;;;;;16.54;59.67;97693.14;1721330;83;21108;-76
2022/05/17 06:15:14;;;;;;;8.80;4.85;;;;;;;16.66;59.41;97691.09;1721556;83;21429;-75
2022/05/17 06:17:40;;;;;;;8.25;4.22;;;;;;;16.77;59.18;97682.41;1721604;83;21003;-75
2022/05/17 06:20:11;;;;;;;8.68;3.90;;;;;;;16.90;58.97;97690.55;1721572;83;21015;-76
2022/05/17 06:22:38;;;;;;;7.53;3.90;;;;;;;17.02;58.48;97684.47;1721647;83;21008;-76
2022/05/17 06:25:09;;;;;;;6.03;3.62;;;;;;;17.14;58.59;97686.91;1721539;83;20980;-75
2022/05/17 06:27:35;;;;;;;6.92;3.42;;;;;;;17.26;58.40;97682.61;1721607;83;21027;-76
2022/05/17 06:30:02;;;;;;;14.43;3.83;;;;;;;17.36;57.64;97680.20;1721563;83;21027;-76
2022/05/17 06:32:29;;;;;;;19.02;9.50;;;;;;;17.48;57.66;97681.25;1721574;83;20989;-76
2022/05/17 06:34:56;;;;;;;9.68;4.92;;;;;;;17.57;57.52;97682.98;1721661;83;21051;-76
2022/05/17 06:37:22;;;;;;;6.65;3.37;;;;;;;17.68;57.44;97685.83;1721605;83;21111;-75
2022/05/17 06:39:48;;;;;;;8.33;3.33;;;;;;;17.72;57.16;97677.97;1721480;83;21000;-76
2022/05/17 06:42:15;;;;;;;7.37;3.40;;;;;;;17.76;56.69;97683.99;1721697;83;21020;-76
2022/05/17 06:44:41;;;;;;;5.55;3.47;;;;;;;17.85;56.59;97683.41;1721697;83;21015;-76
2022/05/17 06:47:08;;;;;;;8.13;3.80;;;;;;;17.90;56.29;97677.27;1721381;83;21425;-75
2022/05/17 06:49:39;;;;;;;8.98;3.40;;;;;;;17.99;55.96;97675.83;1721545;83;21003;-76
2022/05/17 06:52:08;;;;;;;6.28;3.85;;;;;;;18.05;55.40;97674.08;1721622;83;21106;-76
2022/05/17 06:54:36;;;;;;;5.83;4.03;;;;;;;18.11;53.43;97673.33;1721497;83;21020;-75
2022/05/17 06:57:09;;;;;;;8.95;4.15;;;;;;;18.21;54.18;97673.09;1721223;83;21036;-75
2022/05/17 06:59:39;;;;;;;11.57;3.85;;;;;;;18.32;53.87;97665.68;1721944;82;21547;-76
2022/05/17 07:02:07;;;;;;;12.07;4.05;;;;;;;18.40;53.63;97671.88;1724304;83;21132;-76
2022/05/17 07:04:34;;;;;;;9.75;5.12;;;;;;;18.50;53.75;97671.63;1724351;83;20992;-75
2022/05/17 07:07:03;;;;;;;8.73;4.70;;;;;;;18.62;53.78;97665.05;1724430;83;21019;-76
2022/05/17 07:09:31;;;;;;;12.03;4.60;;;;;;;18.71;53.13;97668.45;1724650;83;21057;-76
2022/05/17 07:14:42;;;;;;;19.27;4.65;;;;;;;18.88;53.01;97669.13;1692317;84;21374;-75
2022/05/17 07:17:15;;;;;;;15.45;4.78;;;;;;;18.96;52.79;97670.78;1699859;84;21046;-75
2022/05/17 07:19:43;;;;;;;11.50;4.47;;;;;;;19.03;52.02;97673.91;1692511;85;21059;-75
2022/05/17 07:22:10;;;;;;;10.90;4.47;;;;;;;19.13;52.02;97669.64;1699679;84;21030;-76
2022/05/17 07:24:36;;;;;;;8.45;4.65;;;;;;;19.20;51.48;97668.73;1724444;83;21115;-76
2022/05/17 07:27:05;;;;;;;7.53;4.08;;;;;;;19.33;51.50;97660.66;1670009;85;21033;-75
2022/05/17 07:29:33;;;;;;;14.50;4.00;;;;;;;19.48;49.71;97659.55;1699695;83;21137;-76
2022/05/17 07:32:00;;;;;;;8.28;4.28;;;;;;;19.70;50.60;97669.25;1724361;83;20972;-76
2022/05/17 07:34:27;;;;;;;7.53;4.03;;;;;;;19.95;50.83;97659.39;1724331;83;21031;-75
2022/05/17 07:36:55;;;;;;;10.08;4.33;;;;;;;20.18;50.18;97665.30;1724206;83;21515;-76
2022/05/17 07:39:21;;;;;;;8.90;4.37;;;;;;;20.30;49.40;97664.00;1691994;85;21108;-76
2022/05/17 07:41:49;;;;;;;7.25;4.10;;;;;;;20.41;49.47;97669.45;1699821;83;21015;-76
2022/05/17 07:44:15;;;;;;;10.15;4.25;;;;;;;20.56;48.51;97670.62;1692082;85;21028;-75
2022/05/17 07:46:41;;;;;;;10.70;4.28;;;;;;;20.72;48.43;97671.66;1699791;84;21435;-75
2022/05/17 07:49:08;;;;;;;6.42;3.65;;;;;;;20.84;47.34;97668.48;1692045;85;21044;-76
2022/05/17 07:51:35;;;;;;;7.60;3.95;;;;;;;20.92;48.05;97662.05;1699781;83;21054;-76
2022/05/17 07:54:02;;;;;;;12.30;4.10;;;;;;;21.03;47.75;97661.70;1724249;83;21476;-76
2022/05/17 07:56:28;;;;;;;9.20;3.85;;;;;;;21.19;48.16;97655.50;1691955;85;21001;-77
2022/05/17 07:58:55;;;;;;;13.80;4.40;;;;;;;21.40;48.17;97652.55;1699777;83;20987;-76
2022/05/17 08:01:21;;;;;;;9.05;3.90;;;;;;;21.57;47.96;97653.41;1691884;83;21048;-76
2022/05/17 08:03:47;;;;;;;13.35;5.72;;;;;;;21.74;47.88;97649.86;1662742;86;20997;-76
2022/05/17 08:06:13;;;;;;;14.43;6.45;;;;;;;21.84;47.42;97653.52;1691959;85;21502;-76
2022/05/17 08:08:39;;;;;;;7.28;4.53;;;;;;;21.93;47.20;97648.36;1662871;86;21036;-76
2022/05/17 08:11:07;;;;;;;10.13;5.10;;;;;;;22.02;47.62;97653.00;1691887;85;21088;-76
2022/05/17 08:13:33;;;;;;;9.23;4.85;;;;;;;22.16;47.64;97650.50;1662721;86;21040;-77
2022/05/17 08:16:01;;;;;;;9.28;4.53;;;;;;;22.23;47.03;97650.38;1692045;85;21023;-76
2022/05/17 08:18:27;;;;;;;8.43;4.53;;;;;;;22.33;47.16;97641.00;1699565;84;21086;-76
2022/05/17 08:20:53;;;;;;;14.25;5.80;;;;;;;22.53;47.40;97643.41;1691928;85;21072;-76
2022/05/17 08:23:20;;;;;;;7.95;4.90;;;;;;;22.65;47.33;97636.59;1662755;86;21001;-76
2022/05/17 08:28:31;;;;;;;11.65;4.65;;;;;;;22.74;47.00;97618.25;1699833;84;21058;-76
2022/05/17 08:30:57;;;;;;;9.63;4.80;;;;;;;22.80;45.96;97627.16;1692030;85;21143;-76
2022/05/17 08:33:26;;;;;;;11.10;5.60;;;;;;;22.81;46.46;97623.50;1699615;84;21071;-76
2022/05/17 08:36:02;;;;;;;10.60;4.40;;;;;;;22.83;47.05;97629.26;1691896;85;21009;-76
2022/05/17 08:38:44;;;;;;;10.00;4.87;;;;;;;22.98;47.13;97629.76;1691771;85;21037;-77
2022/05/17 08:41:37;;;;;;;9.05;4.45;;;;;;;23.05;47.07;97629.60;1691931;85;21449;-76
2022/05/17 08:44:09;;;;;;;13.97;4.63;;;;;;;23.15;46.80;97632.34;1691927;85;21009;-76
2022/05/17 08:47:11;;;;;;;10.95;5.00;;;;;;;23.15;46.65;97630.51;1691846;85;21095;-76
2022/05/17 08:49:50;;;;;;;11.18;4.58;;;;;;;23.13;46.49;97632.47;1691908;85;21040;-76
2022/05/17 08:52:22;;;;;;;8.50;5.20;;;;;;;23.10;46.27;97629.19;1691800;85;21157;-76
2022/05/17 08:54:58;;;;;;;14.78;6.08;;;;;;;23.02;45.88;97633.91;1692055;83;21001;-76
2022/05/17 08:57:46;;;;;;;10.68;4.85;;;;;;;22.97;46.13;97646.48;1692077;85;21494;-76
2022/05/17 09:00:27;;;;;;;11.30;4.70;;;;;;;22.86;46.53;97655.51;1691760;85;21161;-76
2022/05/17 09:03:03;;;;;;;14.20;4.65;;;;;;;22.80;46.74;97684.41;1691769;85;21020;-76
2022/05/17 09:05:45;;;;;;;6.05;3.92;;;;;;;22.72;46.84;97690.95;1691717;85;21449;-77
2022/05/17 09:08:21;;;;;;;9.75;3.95;;;;;;;22.56;46.41;97705.75;1691978;85;21048;-75
2022/05/17 09:11:06;;;;;;;14.20;3.80;;;;;;;21.92;48.92;97705.50;1692029;85;21445;-76
2022/05/17 09:13:48;;;;;;;9.18;3.25;;;;;;;21.62;49.32;97725.83;1691977;85;21088;-75
2022/05/17 09:16:15;;;;;;;7.87;3.20;;;;;;;21.08;51.29;97741.20;1692153;85;21117;-75
2022/05/17 09:18:47;;;;;;;8.08;3.62;;;;;;;20.86;51.40;97751.86;1692098;85;21426;-76
2022/05/17 09:21:32;;;;;;;5.53;3.40;;;;;;;20.20;56.56;97767.91;1691903;85;21446;-75
2022/05/17 09:24:01;;;;;;;7.05;3.58;;;;;;;19.68;57.83;97781.42;1691999;85;21021;-76
2022/05/17 09:26:28;;;;;;;9.80;4.08;;;;;;;19.20;57.94;97790.95;1692107;85;21438;-77
2022/05/17 09:29:17;;;;;;;6.20;4.00;;;;;;;18.74;59.94;97791.23;1691738;85;21092;-76
2022/05/17 09:31:52;;;;;;;4.50;3.72;;;;;;;18.37;61.06;97800.84;1692251;85;21040;-76
2022/05/17 09:34:34;;;;;;;8.05;4.00;;;;;;;18.00;62.90;97808.92;1692019;85;21025;-76
2022/05/17 09:37:13;;;;;;;5.62;4.35;;;;;;;17.60;63.81;97816.77;1692157;85;21028;-75
2022/05/17 09:39:47;;;;;;;8.48;4.25;;;;;;;17.15;67.19;97817.64;1692056;85;21080;-75
2022/05/17 09:42:25;;;;;;;7.72;4.65;;;;;;;16.85;67.87;97827.80;1692119;85;21092;-75
2022/05/17 09:44:54;;;;;;;7.22;3.98;;;;;;;16.62;68.69;97821.48;1691821;85;21521;-76
2022/05/17 09:47:33;;;;;;;9.23;4.22;;;;;;;16.33;74.10;97828.50;1692025;85;21075;-77
2022/05/17 09:53:01;;;;;;;9.65;4.78;;;;;;;15.74;78.28;97830.32;1692233;85;21016;-76
2022/05/17 09:55:31;;;;;;;6.30;4.08;;;;;;;15.53;75.35;97819.84;1692133;85;21044;-76
2022/05/17 09:58:03;;;;;;;7.55;5.30;;;;;;;15.40;79.38;97824.47;1692015;85;21450;-77
2022/05/17 10:00:47;;;;;;;7.37;4.83;;;;;;;15.33;77.33;97814.19;1691102;85;21129;-77
2022/05/17 10:03:28;;;;;;;9.10;5.37;;;;;;;15.30;81.02;97816.55;1701897;84;21024;-77
2022/05/17 10:06:01;;;;;;;9.00;5.30;;;;;;;15.24;77.11;97807.05;1701618;84;21027;-77
2022/05/17 10:08:37;;;;;;;10.80;8.13;;;;;;;15.17;83.34;97803.83;1701842;84;21023;-76
2022/05/17 10:11:07;;;;;;;11.88;7.40;;;;;;;15.10;82.19;97796.21;1701712;84;21039;-76
2022/05/17 10:13:55;;;;;;;11.03;6.55;;;;;;;15.10;82.19;97798.42;1701653;83;21008;-77
2022/05/17 10:16:28;;;;;;;13.08;5.97;;;;;;;15.17;81.37;97794.97;1701944;84;21042;-77
2022/05/17 10:18:59;;;;;;;8.65;5.72;;;;;;;15.26;81.13;97783.82;1701731;83;21040;-77
2022/05/17 10:21:38;;;;;;;11.40;5.60;;;;;;;15.39;79.76;97776.02;1701830;84;21016;-77
2022/05/17 10:24:08;;;;;;;8.43;6.10;;;;;;;15.50;79.42;97770.58;1701720;84;21062;-76
2022/05/17 10:26:40;;;;;;;9.35;6.37;;;;;;;15.61;79.64;97769.52;1701683;84;21036;-77
2022/05/17 10:29:27;;;;;;;8.85;5.60;;;;;;;15.73;82.78;97768.00;1701234;84;21094;-77
2022/05/17 10:31:57;;;;;;;15.50;7.75;;;;;;;15.82;80.75;97755.97;1701885;84;21044;-77
2022/05/17 10:34:48;;;;;;;12.37;6.53;;;;;;;15.95;79.93;97753.02;1701708;83;20996;-76
2022/05/17 10:37:21;;;;;;;9.98;5.70;;;;;;;16.07;80.69;97745.28;1701839;84;21071;-77
2022/05/17 10:39:57;;;;;;;7.55;5.60;;;;;;;16.22;81.27;97741.73;1701508;84;21043;-76
2022/05/17 10:42:24;;;;;;;8.95;5.78;;;;;;;16.29;80.27;97733.35;1686650;85;21045;-76
2022/05/17 10:44:53;;;;;;;9.13;6.05;;;;;;;16.36;80.74;97731.58;1701832;84;20984;-76
2022/05/17 10:47:49;;;;;;;8.43;5.65;;;;;;;16.44;80.94;97734.30;1701799;84;21004;-77
2022/05/17 10:50:31;;;;;;;8.88;5.70;;;;;;;16.41;80.51;97742.02;1701893;84;21492;-76
2022/05/17 10:53:22;;;;;;;9.03;6.55;;;;;;;16.44;81.22;97733.80;1701127;84;21100;-76
2022/05/17 10:56:22;;;;;;;11.70;6.28;;;;;;;16.49;80.81;97725.53;1701536;84;21477;-76
2022/05/17 10:59:01;;;;;;;8.10;6.10;;;;;;;16.50;80.38;97729.42;1701687;84;21433;-76
2022/05/17 11:01:52;;;;;;;9.98;5.72;;;;;;;16.52;82.19;97729.84;1712120;82;21028;-77
2022/05/17 11:04:28;;;;;;;8.75;5.87;;;;;;;16.50;81.44;97731.26;1724691;82;21063;-76
2022/05/17 11:07:17;;;;;;;8.15;5.90;;;;;;;16.42;82.52;97733.50;1724072;83;21032;-76
2022/05/17 11:10:06;;;;;;;8.68;5.45;;;;;;;16.39;82.65;97741.73;1724618;83;21035;-77
2022/05/17 11:12:36;;;;;;;7.87;5.37;;;;;;;16.32;83.78;97742.55;1692169;84;21084;-76
2022/05/17 11:15:12;;;;;;;8.20;5.10;;;;;;;16.26;84.39;97753.57;1699344;84;21027;-76
2022/05/17 11:17:50;;;;;;;7.55;5.25;;;;;;;16.22;84.18;97756.44;1724420;83;21158;-77
2022/05/17 11:20:22;;;;;;;7.70;5.67;;;;;;;16.21;84.74;97763.20;1691242;85;21067;-76
2022/05/17 11:22:55;;;;;;;9.05;5.40;;;;;;;16.22;84.74;97766.26;1664189;86;21019;-77
2022/05/17 11:25:44;;;;;;;8.70;6.22;;;;;;;16.21;85.32;97767.22;1692346;85;21058;-77
2022/05/17 11:28:36;;;;;;;12.90;6.05;;;;;;;16.20;85.87;97764.16;1662834;86;21433;-76
2022/05/17 11:31:11;;;;;;;10.30;5.90;;;;;;;16.22;84.82;97765.80;1678140;84;21040;-77
2022/05/17 11:33:40;;;;;;;7.83;6.00;;;;;;;16.23;84.86;97758.62;1662556;86;21016;-78
2022/05/17 11:36:13;;;;;;;8.15;5.95;;;;;;;16.27;83.69;97750.81;1692055;85;21456;-77
2022/05/17 11:38:49;;;;;;;9.78;6.05;;;;;;;16.32;87.13;97746.06;1692155;85;21064;-77
2022/05/17 11:41:19;;;;;;;8.53;6.12;;;;;;;16.38;84.67;97736.84;1692055;85;21092;-87
2022/05/17 11:43:49;;;;;;;11.00;6.75;;;;;;;16.50;83.99;97736.11;1692158;85;21044;-87
2022/05/17 11:46:34;;;;;;;8.43;6.00;;;;;;;16.58;84.92;97723.66;1691913;85;21556;-87
2022/05/17 11:49:19;;;;;;;8.68;6.37;;;;;;;16.72;84.21;97720.62;1691913;85;21076;-87
2022/05/17 11:52:01;;;;;;;6.87;6.22;;;;;;;16.79;83.45;97714.43;1691926;85;21151;-86
2022/05/17 11:54:47;;;;;;;10.60;6.40;;;;;;;16.80;83.17;97711.67;1692067;85;21032;-87
2022/05/17 11:57:20;;;;;;;7.90;6.92;;;;;;;16.97;83.75;97712.46;1692213;85;20976;-86